createdAt,value
2022-10-17T00:00:41.458Z,100214.58
2022-10-17T00:03:08.801Z,100215.91
2022-10-17T00:05:40.880Z,100227.00
2022-10-17T00:08:07.996Z,100230.98
2022-10-17T00:10:35.053Z,100237.48
2022-10-17T00:13:02.200Z,100240.63
2022-10-17T00:15:29.368Z,100243.17
2022-10-17T00:17:56.396Z,100242.27
2022-10-17T00:20:23.537Z,100238.21
2022-10-17T00:22:50.726Z,100236.05
2022-10-17T00:25:18.043Z,100238.30
2022-10-17T00:27:45.112Z,100232.83
2022-10-17T00:30:14.900Z,100240.46
2022-10-17T00:32:41.948Z,100234.40
2022-10-17T00:35:08.835Z,100237.36
2022-10-17T00:37:36.245Z,100241.68
2022-10-17T00:40:04.260Z,100240.70
2022-10-17T00:42:31.538Z,100240.10
2022-10-17T00:45:26.097Z,100236.93
2022-10-17T00:47:59.155Z,100237.77
2022-10-17T00:50:26.208Z,100237.76
2022-10-17T00:52:53.368Z,100232.27
2022-10-17T00:55:25.539Z,100230.27
2022-10-17T00:57:52.663Z,100225.70
2022-10-17T01:00:19.726Z,100229.27
2022-10-17T01:02:46.791Z,100226.38
2022-10-17T01:05:14.043Z,100225.84
2022-10-17T01:07:42.797Z,100223.60
2022-10-17T01:10:09.959Z,100222.24
2022-10-17T01:12:57.582Z,100213.45
2022-10-17T01:15:27.537Z,100207.94
2022-10-17T01:18:29.367Z,100206.85
2022-10-17T01:20:59.573Z,100208.77
2022-10-17T01:23:57.957Z,100213.33
2022-10-17T01:26:34.270Z,100218.10
2022-10-17T01:29:24.230Z,100224.86
2022-10-17T01:32:13.372Z,100221.84
2022-10-17T01:34:57.852Z,100220.98
2022-10-17T01:37:33.277Z,100218.61
2022-10-17T01:40:08.924Z,100214.98
2022-10-17T01:42:51.222Z,100212.92
2022-10-17T01:45:21.199Z,100214.50
2022-10-17T01:47:48.286Z,100218.45
2022-10-17T01:50:29.053Z,100222.86
2022-10-17T01:52:59.616Z,100222.73
2022-10-17T01:55:33.184Z,100213.31
2022-10-17T01:58:09.618Z,100219.47
2022-10-17T02:00:38.037Z,100220.81
2022-10-17T02:03:06.651Z,100219.60
2022-10-17T02:05:36.965Z,100217.48
2022-10-17T02:08:04.823Z,100223.55
2022-10-17T02:10:37.477Z,100222.13
2022-10-17T02:13:20.095Z,100218.08
2022-10-17T02:16:11.109Z,100211.52
2022-10-17T02:18:51.879Z,100211.70
2022-10-17T02:21:43.743Z,100202.61
2022-10-17T02:24:16.913Z,100202.64
2022-10-17T02:27:25.755Z,100210.83
2022-10-17T02:30:17.795Z,100215.13
2022-10-17T02:33:14.192Z,100217.84
2022-10-17T02:35:44.316Z,100226.64
2022-10-17T02:38:11.918Z,100233.57
2022-10-17T02:40:38.836Z,100237.34
2022-10-17T02:43:05.758Z,100240.75
2022-10-17T02:45:36.293Z,100236.98
2022-10-17T02:48:41.729Z,100236.66
2022-10-17T02:51:19.017Z,100235.89
2022-10-17T02:54:11.069Z,100240.23
2022-10-17T02:56:43.446Z,100241.27
2022-10-17T02:59:10.414Z,100238.48
2022-10-17T03:01:38.245Z,100241.40
2022-10-17T03:04:07.738Z,100244.91
2022-10-17T03:06:34.648Z,100247.34
2022-10-17T03:09:02.065Z,100248.92
2022-10-17T03:11:29.801Z,100252.69
2022-10-17T03:13:56.858Z,100249.27
2022-10-17T03:16:23.999Z,100246.66
2022-10-17T03:18:51.008Z,100246.44
2022-10-17T03:21:18.090Z,100246.42
2022-10-17T03:23:45.139Z,100242.55
2022-10-17T03:26:13.215Z,100240.86
2022-10-17T03:28:40.859Z,100241.45
2022-10-17T03:31:09.408Z,100242.58
2022-10-17T03:33:37.604Z,100245.71
2022-10-17T03:36:09.775Z,100248.42
2022-10-17T03:38:37.254Z,100246.44
2022-10-17T03:41:05.528Z,100246.77
2022-10-17T03:43:32.778Z,100240.74
2022-10-17T03:45:59.759Z,100239.61
2022-10-17T03:48:27.181Z,100243.59
2022-10-17T03:51:08.767Z,100248.73
2022-10-17T03:53:40.326Z,100249.63
2022-10-17T03:56:14.948Z,100249.38
2022-10-17T03:58:42.207Z,100253.40
2022-10-17T04:01:11.294Z,100246.25
2022-10-17T04:03:38.447Z,100239.76
2022-10-17T04:06:06.144Z,100240.02
2022-10-17T04:08:34.379Z,100241.92
2022-10-17T04:11:08.092Z,100243.27
2022-10-17T04:13:35.435Z,100242.59
2022-10-17T04:16:08.199Z,100248.89
2022-10-17T04:18:36.600Z,100250.84
2022-10-17T04:21:04.565Z,100246.14
2022-10-17T04:23:31.546Z,100244.79
2022-10-17T04:26:03.680Z,100247.39
2022-10-17T04:28:30.770Z,100254.88
2022-10-17T04:31:16.203Z,100266.58
2022-10-17T04:34:01.817Z,100267.89
2022-10-17T04:36:28.807Z,100266.27
2022-10-17T04:38:55.990Z,100263.59
2022-10-17T04:41:23.537Z,100268.38
2022-10-17T04:43:51.398Z,100267.64
2022-10-17T04:46:19.385Z,100269.48
2022-10-17T04:48:46.810Z,100269.60
2022-10-17T04:51:16.046Z,100274.84
2022-10-17T04:53:58.560Z,100272.95
2022-10-17T04:56:25.592Z,100270.64
2022-10-17T04:58:52.775Z,100275.08
2022-10-17T05:01:21.716Z,100274.44
2022-10-17T05:03:52.153Z,100277.36
2022-10-17T05:06:21.800Z,100278.76
2022-10-17T05:09:02.941Z,100274.14
2022-10-17T05:11:30.439Z,100271.64
2022-10-17T05:14:01.233Z,100272.80
2022-10-17T05:16:29.542Z,100273.97
2022-10-17T05:18:57.496Z,100267.19
2022-10-17T05:21:27.538Z,100264.55
2022-10-17T05:23:54.871Z,100258.04
2022-10-17T05:26:22.725Z,100252.16
2022-10-17T05:28:50.102Z,100256.96
2022-10-17T05:31:17.731Z,100258.54
2022-10-17T05:33:44.660Z,100267.69
2022-10-17T05:36:12.280Z,100273.05
2022-10-17T05:38:39.504Z,100281.05
2022-10-17T05:41:06.991Z,100291.55
2022-10-17T05:43:34.194Z,100299.70
2022-10-17T05:46:07.729Z,100300.19
2022-10-17T05:48:35.051Z,100305.13
2022-10-17T05:51:04.599Z,100316.69
2022-10-17T05:53:33.033Z,100317.13
2022-10-17T05:56:03.772Z,100321.91
2022-10-17T05:58:49.331Z,100317.59
2022-10-17T06:01:30.265Z,100322.69
2022-10-17T06:03:57.823Z,100332.52
2022-10-17T06:06:25.441Z,100336.86
2022-10-17T06:08:52.487Z,100336.42
2022-10-17T06:11:25.687Z,100342.96
2022-10-17T06:13:52.657Z,100351.98
2022-10-17T06:16:23.186Z,100352.98
2022-10-17T06:18:50.212Z,100355.26
2022-10-17T06:21:23.491Z,100359.52
2022-10-17T06:23:52.831Z,100361.27
2022-10-17T06:26:29.187Z,100362.64
2022-10-17T06:28:56.454Z,100364.70
2022-10-17T06:31:24.587Z,100369.27
2022-10-17T06:33:51.641Z,100374.84
2022-10-17T06:36:18.665Z,100375.55
2022-10-17T06:38:46.186Z,100376.02
2022-10-17T06:41:20.866Z,100378.73
2022-10-17T06:43:51.494Z,100380.77
2022-10-17T06:46:38.612Z,100381.13
2022-10-17T06:49:08.117Z,100381.27
2022-10-17T06:51:42.890Z,100386.29
2022-10-17T06:54:12.359Z,100387.36
2022-10-17T06:57:01.988Z,100383.47
2022-10-17T06:59:29.080Z,100385.02
2022-10-17T07:02:10.170Z,100378.96
2022-10-17T07:04:37.507Z,100382.38
2022-10-17T07:07:04.843Z,100380.70
2022-10-17T07:09:33.953Z,100376.77
2022-10-17T07:12:00.899Z,100373.30
2022-10-17T07:14:32.328Z,100364.83
2022-10-17T07:16:59.924Z,100361.74
2022-10-17T07:19:29.043Z,100363.70
2022-10-17T07:21:55.975Z,100361.38
2022-10-17T07:24:23.209Z,100364.30
2022-10-17T07:26:55.440Z,100372.17
2022-10-17T07:29:22.721Z,100373.70
2022-10-17T07:31:58.471Z,100370.00
2022-10-17T07:34:27.815Z,100370.80
2022-10-17T07:36:55.950Z,100367.06
2022-10-17T07:39:23.209Z,100375.48
2022-10-17T07:41:51.089Z,100384.81
2022-10-17T07:44:18.768Z,100390.80
2022-10-17T07:46:49.381Z,100393.77
2022-10-17T07:49:16.748Z,100384.00
2022-10-17T07:51:43.790Z,100380.89
2022-10-17T07:54:10.810Z,100373.63
2022-10-17T07:56:37.766Z,100383.03
2022-10-17T07:59:08.257Z,100389.38
2022-10-17T08:01:37.384Z,100397.57
2022-10-17T08:04:04.372Z,100400.95
2022-10-17T08:06:31.405Z,100407.63
2022-10-17T08:08:59.058Z,100404.89
2022-10-17T08:11:25.954Z,100407.38
2022-10-17T08:13:52.904Z,100409.19
2022-10-17T08:16:19.968Z,100401.05
2022-10-17T08:18:47.050Z,100393.45
2022-10-17T08:21:14.172Z,100387.42
2022-10-17T08:23:41.215Z,100389.84
2022-10-17T08:26:10.767Z,100393.23
2022-10-17T08:28:39.373Z,100396.03
2022-10-17T08:31:08.766Z,100390.27
2022-10-17T08:33:35.768Z,100383.42
2022-10-17T08:36:03.498Z,100383.66
2022-10-17T08:38:34.682Z,100382.03
2022-10-17T08:41:05.087Z,100379.52
2022-10-17T08:43:52.950Z,100373.40
2022-10-17T08:46:20.173Z,100366.05
2022-10-17T08:48:48.214Z,100365.52
2022-10-17T08:51:23.613Z,100369.34
2022-10-17T08:53:58.515Z,100370.36
2022-10-17T08:56:44.546Z,100373.02
2022-10-17T08:59:27.154Z,100369.39
2022-10-17T09:02:14.546Z,100373.67
2022-10-17T09:05:09.371Z,100373.20
2022-10-17T09:08:07.425Z,100365.68
2022-10-17T09:10:58.143Z,100362.13
2022-10-17T09:13:33.298Z,100358.97
2022-10-17T09:16:10.741Z,100366.73
2022-10-17T09:18:40.357Z,100367.90
2022-10-17T09:21:16.641Z,100366.11
2022-10-17T09:23:47.800Z,100370.55
2022-10-17T09:26:14.822Z,100375.11
2022-10-17T09:28:42.359Z,100376.77
2022-10-17T09:31:32.767Z,100380.20
2022-10-17T09:34:01.688Z,100384.95
2022-10-17T09:36:36.461Z,100389.64
2022-10-17T09:39:15.221Z,100385.44
2022-10-17T09:41:46.408Z,100387.05
2022-10-17T09:44:15.880Z,100380.95
2022-10-17T09:46:48.642Z,100391.88
2022-10-17T09:49:20.195Z,100387.90
2022-10-17T09:51:47.189Z,100377.95
2022-10-17T09:54:22.969Z,100377.60
2022-10-17T09:57:07.082Z,100377.87
2022-10-17T10:00:01.216Z,100381.77
2022-10-17T10:02:30.210Z,100379.11
2022-10-17T10:05:21.218Z,100376.13
2022-10-17T10:08:06.088Z,100378.61
2022-10-17T10:10:33.378Z,100383.66
2022-10-17T10:13:20.634Z,100384.61
2022-10-17T10:15:49.269Z,100388.50
2022-10-17T10:18:25.561Z,100386.26
2022-10-17T10:21:15.330Z,100381.86
2022-10-17T10:23:44.495Z,100382.84
2022-10-17T10:26:24.749Z,100383.59
2022-10-17T10:29:03.285Z,100386.48
2022-10-17T10:31:39.945Z,100386.45
2022-10-17T10:34:15.482Z,100388.20
2022-10-17T10:37:07.218Z,100387.30
2022-10-17T10:39:56.410Z,100378.78
2022-10-17T10:42:29.323Z,100377.14
2022-10-17T10:45:23.671Z,100371.64
2022-10-17T10:48:01.491Z,100368.29
2022-10-17T10:50:42.972Z,100369.02
2022-10-17T10:53:15.304Z,100367.14
2022-10-17T10:56:02.830Z,100365.27
2022-10-17T10:58:48.825Z,100365.36
2022-10-17T11:01:31.947Z,100373.52
2022-10-17T11:04:45.089Z,100368.14
2022-10-17T11:07:22.824Z,100368.41
2022-10-17T11:10:01.328Z,100365.52
2022-10-17T11:12:57.631Z,100363.88
2022-10-17T11:15:49.156Z,100357.59
2022-10-17T11:18:23.386Z,100350.86
2022-10-17T11:20:58.405Z,100355.24
2022-10-17T11:23:30.673Z,100348.19
2022-10-17T11:25:59.910Z,100348.13
2022-10-17T11:28:26.964Z,100345.05
2022-10-17T11:31:04.514Z,100344.33
2022-10-17T11:33:38.319Z,100342.55
2022-10-17T11:36:07.067Z,100338.55
2022-10-17T11:38:39.104Z,100334.52
2022-10-17T11:41:06.522Z,100332.76
2022-10-17T11:43:49.031Z,100329.38
2022-10-17T11:46:24.272Z,100329.51
2022-10-17T11:49:15.060Z,100323.60
2022-10-17T11:52:03.676Z,100324.98
2022-10-17T11:54:38.361Z,100328.14
2022-10-17T11:57:26.960Z,100334.85
2022-10-17T12:00:18.837Z,100329.15
2022-10-17T12:02:51.662Z,100325.77
2022-10-17T12:05:37.611Z,100327.31
2022-10-17T12:08:39.330Z,100325.63
2022-10-17T12:11:45.954Z,100323.02
2022-10-17T12:14:36.106Z,100323.59
2022-10-17T12:17:03.425Z,100326.42
2022-10-17T12:19:37.610Z,100324.98
2022-10-17T12:22:22.161Z,100320.61
2022-10-17T12:25:02.655Z,100328.79
2022-10-17T12:27:48.727Z,100327.16
2022-10-17T12:30:26.005Z,100323.69
2022-10-17T12:33:13.348Z,100322.75
2022-10-17T12:35:40.276Z,100321.77
2022-10-17T12:38:27.218Z,100318.06
2022-10-17T12:40:56.031Z,100314.67
2022-10-17T12:43:29.222Z,100311.67
2022-10-17T12:45:59.962Z,100313.16
2022-10-17T12:48:33.346Z,100313.98
2022-10-17T12:54:02.473Z,100310.52
2022-10-17T12:56:36.419Z,100305.38
2022-10-17T12:59:14.235Z,100303.35
2022-10-17T13:01:42.994Z,100299.17
2022-10-17T13:04:10.377Z,100298.40
2022-10-17T13:06:40.551Z,100301.20
2022-10-17T13:09:29.143Z,100302.78
2022-10-17T13:11:58.015Z,100304.50
2022-10-17T13:14:25.110Z,100307.52
2022-10-17T13:17:00.029Z,100308.07
2022-10-17T13:19:40.075Z,100315.52
2022-10-17T13:22:16.877Z,100316.77
2022-10-17T13:24:44.305Z,100319.61
2022-10-17T13:27:30.902Z,100319.35
2022-10-17T13:29:59.027Z,100322.61
2022-10-17T13:32:27.695Z,100324.52
2022-10-17T13:35:15.556Z,100322.20
2022-10-17T13:37:43.810Z,100322.15
2022-10-17T13:40:44.609Z,100319.58
2022-10-17T13:43:24.363Z,100316.00
2022-10-17T13:45:58.099Z,100316.98
2022-10-17T13:48:28.485Z,100318.12
2022-10-17T13:51:00.389Z,100319.30
2022-10-17T13:53:39.989Z,100314.45
2022-10-17T13:56:32.950Z,100307.77
2022-10-17T13:59:11.772Z,100311.13
2022-10-17T14:01:38.706Z,100312.02
2022-10-17T14:04:13.710Z,100311.10
2022-10-17T14:06:49.688Z,100308.77
2022-10-17T14:09:22.563Z,100309.84
2022-10-17T14:11:58.340Z,100305.17
2022-10-17T14:14:26.372Z,100309.28
2022-10-17T14:16:53.392Z,100309.46
2022-10-17T14:19:28.757Z,100307.76
2022-10-17T14:21:57.269Z,100308.63
2022-10-17T14:24:24.274Z,100308.63
2022-10-17T14:26:53.424Z,100307.95
2022-10-17T14:29:25.492Z,100314.45
2022-10-17T14:32:10.971Z,100314.02
2022-10-17T14:34:40.074Z,100314.20
2022-10-17T14:37:31.598Z,100314.65
2022-10-17T14:40:00.369Z,100318.77
2022-10-17T14:42:27.423Z,100316.74
2022-10-17T14:44:55.083Z,100319.19
2022-10-17T14:50:13.345Z,100323.11
2022-10-17T14:52:41.016Z,100326.82
2022-10-17T14:55:24.615Z,100328.44
2022-10-17T14:57:51.591Z,100329.45
2022-10-17T15:00:19.802Z,100328.86
2022-10-17T15:02:47.058Z,100330.94
2022-10-17T15:05:14.575Z,100328.34
2022-10-17T15:07:42.461Z,100326.55
2022-10-17T15:10:32.168Z,100330.96
2022-10-17T15:13:26.199Z,100323.92
2022-10-17T15:15:51.612Z,100320.38
2022-10-17T15:18:18.659Z,100315.80
2022-10-17T15:20:45.806Z,100313.39
2022-10-17T15:23:12.876Z,100316.13
2022-10-17T15:25:39.906Z,100313.37
2022-10-17T15:28:06.886Z,100319.36
2022-10-17T15:30:35.658Z,100319.48
2022-10-17T15:33:02.679Z,100322.73
2022-10-17T15:35:29.642Z,100324.64
2022-10-17T15:37:56.507Z,100327.09
2022-10-17T15:40:25.628Z,100326.55
2022-10-17T15:42:52.609Z,100329.21
2022-10-17T15:45:21.877Z,100327.75
2022-10-17T15:48:03.081Z,100328.06
2022-10-17T15:50:30.960Z,100327.44
2022-10-17T15:52:58.002Z,100331.75
2022-10-17T15:55:25.948Z,100327.31
2022-10-17T15:57:52.931Z,100322.98
2022-10-17T16:00:22.318Z,100327.95
2022-10-17T16:02:49.637Z,100329.88
2022-10-17T16:05:18.892Z,100333.53
2022-10-17T16:07:47.047Z,100335.72
2022-10-17T16:10:14.554Z,100338.07
2022-10-17T16:12:41.653Z,100340.54
2022-10-17T16:15:16.623Z,100339.33
2022-10-17T16:17:44.248Z,100338.56
2022-10-17T16:20:12.249Z,100336.55
2022-10-17T16:22:40.973Z,100335.40
2022-10-17T16:25:19.704Z,100336.45
2022-10-17T16:27:47.857Z,100339.31
2022-10-17T16:30:15.202Z,100341.73
2022-10-17T16:32:42.319Z,100342.02
2022-10-17T16:35:09.662Z,100342.96
2022-10-17T16:37:36.670Z,100341.36
2022-10-17T16:40:04.777Z,100339.12
2022-10-17T16:42:31.954Z,100340.55
2022-10-17T16:44:59.502Z,100338.05
2022-10-17T16:47:26.534Z,100339.23
2022-10-17T16:49:53.587Z,100340.86
2022-10-17T16:52:20.524Z,100344.74
2022-10-17T16:54:47.621Z,100346.52
2022-10-17T16:57:14.554Z,100347.09
2022-10-17T16:59:41.668Z,100350.58
2022-10-17T17:02:10.613Z,100348.18
2022-10-17T17:04:38.050Z,100348.88
2022-10-17T17:07:05.164Z,100345.91
2022-10-17T17:09:32.219Z,100347.14
2022-10-17T17:11:59.257Z,100350.77
2022-10-17T17:14:26.534Z,100347.80
2022-10-17T17:16:53.565Z,100344.36
2022-10-17T17:19:20.751Z,100344.17
2022-10-17T17:21:51.065Z,100342.95
2022-10-17T17:24:21.231Z,100345.07
2022-10-17T17:26:52.789Z,100340.94
2022-10-17T17:29:20.627Z,100345.04
2022-10-17T17:31:47.655Z,100346.14
2022-10-17T17:34:17.958Z,100342.63
2022-10-17T17:36:46.014Z,100344.42
2022-10-17T17:39:14.084Z,100349.16
2022-10-17T17:41:41.610Z,100349.86
2022-10-17T17:44:12.459Z,100346.22
2022-10-17T17:46:43.932Z,100347.55
2022-10-17T17:49:11.796Z,100347.68
2022-10-17T17:51:41.625Z,100347.16
2022-10-17T17:54:11.683Z,100346.29
2022-10-17T17:56:38.905Z,100344.77
2022-10-17T17:59:06.035Z,100342.65
2022-10-17T18:01:39.111Z,100346.85
2022-10-17T18:04:08.708Z,100348.08
2022-10-17T18:06:36.901Z,100351.33
2022-10-17T18:09:04.457Z,100350.27
2022-10-17T18:11:31.611Z,100354.18
2022-10-17T18:14:04.134Z,100347.45
2022-10-17T18:16:32.941Z,100348.15
2022-10-17T18:19:04.131Z,100344.49
2022-10-17T18:21:33.868Z,100347.21
2022-10-17T18:24:00.990Z,100349.23
2022-10-17T18:26:28.951Z,100346.02
2022-10-17T18:28:56.085Z,100347.36
2022-10-17T18:31:25.238Z,100345.30
2022-10-17T18:33:53.257Z,100348.99
2022-10-17T18:36:20.619Z,100344.95
2022-10-17T18:38:50.221Z,100341.33
2022-10-17T18:41:18.847Z,100333.80
2022-10-17T18:43:46.633Z,100334.48
2022-10-17T18:46:16.369Z,100334.61
2022-10-17T18:48:47.224Z,100331.84
2022-10-17T18:51:15.802Z,100330.17
2022-10-17T18:53:47.670Z,100331.04
2022-10-17T18:56:15.323Z,100329.13
2022-10-17T18:58:42.406Z,100332.27
2022-10-17T19:01:15.464Z,100337.53
2022-10-17T19:03:43.528Z,100332.42
2022-10-17T19:06:11.906Z,100333.08
2022-10-17T19:08:39.080Z,100331.24
2022-10-17T19:11:11.435Z,100328.34
2022-10-17T19:13:38.646Z,100325.68
2022-10-17T19:16:10.136Z,100323.50
2022-10-17T19:18:37.180Z,100321.70
2022-10-17T19:21:05.561Z,100327.35
2022-10-17T19:23:35.680Z,100332.68
2022-10-17T19:26:04.210Z,100328.59
2022-10-17T19:28:31.989Z,100330.04
2022-10-17T19:30:58.966Z,100326.47
2022-10-17T19:33:25.987Z,100331.81
2022-10-17T19:35:57.498Z,100336.77
2022-10-17T19:38:24.808Z,100338.06
2022-10-17T19:40:52.023Z,100339.98
2022-10-17T19:43:19.330Z,100338.81
2022-10-17T19:46:02.761Z,100335.31
2022-10-17T19:48:32.132Z,100337.09
2022-10-17T19:50:59.344Z,100342.38
2022-10-17T19:53:28.186Z,100347.65
2022-10-17T19:55:57.652Z,100348.86
2022-10-17T19:58:25.573Z,100352.46
2022-10-17T20:00:57.635Z,100354.27
2022-10-17T20:03:25.474Z,100352.19
2022-10-17T20:05:52.671Z,100351.83
2022-10-17T20:08:19.871Z,100349.35
2022-10-17T20:10:47.194Z,100347.41
2022-10-17T20:13:14.311Z,100349.09
2022-10-17T20:15:41.351Z,100349.88
2022-10-17T20:18:08.815Z,100346.46
2022-10-17T20:20:36.348Z,100344.48
2022-10-17T20:23:04.044Z,100341.35
2022-10-17T20:25:30.970Z,100340.16
2022-10-17T20:27:57.923Z,100341.46
2022-10-17T20:30:24.979Z,100343.13
2022-10-17T20:32:55.269Z,100345.27
2022-10-17T20:35:22.807Z,100344.89
2022-10-17T20:37:49.902Z,100341.72
2022-10-17T20:40:34.771Z,100344.73
2022-10-17T20:43:03.763Z,100342.04
2022-10-17T20:45:44.150Z,100342.38
2022-10-17T20:48:18.158Z,100343.20
2022-10-17T20:50:45.179Z,100344.98
2022-10-17T20:53:35.463Z,100346.98
2022-10-17T20:56:09.793Z,100349.32
2022-10-17T20:58:36.833Z,100344.52
2022-10-17T21:01:08.540Z,100344.21
2022-10-17T21:03:38.797Z,100342.84
2022-10-17T21:06:09.239Z,100344.67
2022-10-17T21:08:36.211Z,100343.82
2022-10-17T21:11:08.455Z,100340.80
2022-10-17T21:13:35.315Z,100343.03
2022-10-17T21:16:32.667Z,100342.35
2022-10-17T21:18:59.905Z,100338.98
2022-10-17T21:21:37.751Z,100337.80
2022-10-17T21:24:07.870Z,100336.10
2022-10-17T21:26:36.067Z,100335.98
2022-10-17T21:29:06.007Z,100335.56
2022-10-17T21:31:34.447Z,100334.95
2022-10-17T21:34:05.742Z,100330.52
2022-10-17T21:36:32.786Z,100328.66
2022-10-17T21:38:59.826Z,100327.93
2022-10-17T21:41:28.214Z,100330.48
2022-10-17T21:44:02.180Z,100327.19
2022-10-17T21:46:29.516Z,100324.73
2022-10-17T21:48:56.523Z,100322.38
2022-10-17T21:51:24.837Z,100322.21
2022-10-17T21:53:53.001Z,100321.36
2022-10-17T21:56:22.170Z,100324.75
2022-10-17T21:58:49.342Z,100323.98
2022-10-17T22:01:18.323Z,100322.58
2022-10-17T22:03:48.013Z,100318.32
2022-10-17T22:06:38.869Z,100315.57
2022-10-17T22:09:04.914Z,100317.48
2022-10-17T22:11:55.864Z,100309.75
2022-10-17T22:14:23.917Z,100310.36
2022-10-17T22:16:50.980Z,100313.33
2022-10-17T22:19:21.264Z,100308.00
2022-10-17T22:21:48.859Z,100306.36
2022-10-17T22:24:17.017Z,100305.18
2022-10-17T22:26:44.789Z,100302.25
2022-10-17T22:29:11.774Z,100296.17
2022-10-17T22:31:38.791Z,100292.76
2022-10-17T22:34:05.957Z,100294.38
2022-10-17T22:36:33.701Z,100291.42
2022-10-17T22:39:00.961Z,100290.62
2022-10-17T22:41:28.015Z,100289.75
2022-10-17T22:43:55.048Z,100287.94
2022-10-17T22:46:21.964Z,100282.77
2022-10-17T22:48:49.041Z,100278.01
2022-10-17T22:51:16.046Z,100275.48
2022-10-17T22:53:43.362Z,100274.10
2022-10-17T22:56:12.745Z,100274.84
2022-10-17T22:58:39.804Z,100271.36
2022-10-17T23:01:08.049Z,100276.66
2022-10-17T23:03:35.358Z,100276.77
2022-10-17T23:06:02.468Z,100281.81
2022-10-17T23:08:29.472Z,100278.55
2022-10-17T23:10:56.678Z,100278.36
2022-10-17T23:13:23.712Z,100280.08
2022-10-17T23:15:54.652Z,100285.43
2022-10-17T23:18:22.062Z,100282.77
2022-10-17T23:20:49.259Z,100281.90
2022-10-17T23:23:16.160Z,100283.04
2022-10-17T23:25:43.174Z,100283.33
2022-10-17T23:28:10.540Z,100278.22
2022-10-17T23:30:37.890Z,100272.05
2022-10-17T23:33:05.311Z,100273.11
2022-10-17T23:35:32.399Z,100270.52
2022-10-17T23:37:59.405Z,100270.50
2022-10-17T23:40:26.380Z,100271.98
2022-10-17T23:42:53.299Z,100271.77
2022-10-17T23:45:20.320Z,100264.52
2022-10-17T23:47:47.393Z,100267.15
2022-10-17T23:50:14.366Z,100265.91
2022-10-17T23:52:41.413Z,100261.23
2022-10-17T23:55:09.664Z,100255.56
2022-10-17T23:57:36.708Z,100255.33
